createdAt,value
2022-10-24T00:01:18.689Z,14.30
2022-10-24T00:03:49.228Z,14.30
2022-10-24T00:06:17.410Z,14.20
2022-10-24T00:08:45.729Z,14.10
2022-10-24T00:11:19.431Z,14.10
2022-10-24T00:13:46.619Z,14.10
2022-10-24T00:16:13.773Z,14.10
2022-10-24T00:18:41.142Z,14.00
2022-10-24T00:21:08.906Z,14.10
2022-10-24T00:23:36.569Z,14.10
2022-10-24T00:26:06.561Z,14.10
2022-10-24T00:28:35.670Z,14.10
2022-10-24T00:31:03.163Z,14.10
2022-10-24T00:33:30.356Z,14.10
2022-10-24T00:35:57.306Z,14.10
2022-10-24T00:38:24.430Z,14.10
2022-10-24T00:40:51.486Z,14.20
2022-10-24T00:43:22.665Z,14.20
2022-10-24T00:45:53.344Z,14.20
2022-10-24T00:48:36.994Z,14.20
2022-10-24T00:51:19.352Z,14.10
2022-10-24T00:53:49.848Z,14.10
2022-10-24T00:56:19.759Z,14.00
2022-10-24T00:58:48.438Z,14.00
2022-10-24T01:01:15.610Z,14.00
2022-10-24T01:03:42.738Z,13.90
2022-10-24T01:06:37.506Z,13.90
2022-10-24T01:09:40.354Z,13.90
2022-10-24T01:12:30.248Z,14.00
2022-10-24T01:15:20.057Z,14.00
2022-10-24T01:17:56.175Z,14.00
2022-10-24T01:20:29.290Z,14.00
2022-10-24T01:23:01.969Z,14.00
2022-10-24T01:25:31.912Z,14.00
2022-10-24T01:28:09.566Z,14.00
2022-10-24T01:30:55.348Z,14.00
2022-10-24T01:33:33.815Z,14.00
2022-10-24T01:36:08.495Z,14.00
2022-10-24T01:38:44.002Z,14.00
2022-10-24T01:41:21.309Z,14.00
2022-10-24T01:43:57.087Z,13.90
2022-10-24T01:46:31.389Z,13.90
2022-10-24T01:49:23.375Z,13.80
2022-10-24T01:51:54.556Z,13.60
2022-10-24T01:54:21.944Z,13.50
2022-10-24T01:56:49.177Z,13.40
2022-10-24T01:59:30.850Z,13.40
2022-10-24T02:02:09.962Z,13.30
2022-10-24T02:04:41.935Z,13.20
2022-10-24T02:07:13.033Z,13.10
2022-10-24T02:09:43.604Z,13.00
2022-10-24T02:12:13.963Z,13.00
2022-10-24T02:14:50.114Z,12.90
2022-10-24T02:17:18.119Z,12.90
2022-10-24T02:19:46.878Z,12.90
2022-10-24T02:22:23.987Z,13.00
2022-10-24T02:24:57.587Z,13.10
2022-10-24T02:27:30.195Z,13.20
2022-10-24T02:30:09.164Z,13.20
2022-10-24T02:32:43.002Z,13.20
2022-10-24T02:35:12.962Z,13.30
2022-10-24T02:37:47.822Z,13.20
2022-10-24T02:40:16.945Z,13.20
2022-10-24T02:42:46.302Z,13.20
2022-10-24T02:45:15.505Z,13.10
2022-10-24T02:47:45.675Z,13.10
2022-10-24T02:50:16.018Z,13.10
2022-10-24T02:52:44.497Z,13.10
2022-10-24T02:55:12.223Z,13.00
2022-10-24T02:57:39.629Z,13.00
2022-10-24T03:00:07.898Z,13.00
2022-10-24T03:02:36.605Z,13.00
2022-10-24T03:05:03.673Z,13.00
2022-10-24T03:07:33.111Z,13.00
2022-10-24T03:10:00.020Z,13.00
2022-10-24T03:12:27.179Z,13.00
2022-10-24T03:14:54.088Z,13.00
2022-10-24T03:17:22.015Z,13.10
2022-10-24T03:19:49.265Z,13.00
2022-10-24T03:22:16.365Z,13.00
2022-10-24T03:24:44.367Z,13.00
2022-10-24T03:27:22.057Z,13.00
2022-10-24T03:29:49.096Z,13.00
2022-10-24T03:32:16.044Z,13.00
2022-10-24T03:34:44.167Z,13.00
2022-10-24T03:37:11.113Z,13.00
2022-10-24T03:39:38.061Z,13.00
2022-10-24T03:42:05.158Z,13.10
2022-10-24T03:44:32.092Z,13.10
2022-10-24T03:47:00.106Z,13.10
2022-10-24T03:49:28.584Z,13.10
2022-10-24T03:51:55.602Z,13.10
2022-10-24T03:54:22.526Z,13.10
2022-10-24T03:56:50.127Z,13.10
2022-10-24T03:59:20.276Z,13.10
2022-10-24T04:01:47.332Z,13.00
2022-10-24T04:04:14.474Z,13.00
2022-10-24T04:06:42.652Z,13.00
2022-10-24T04:09:11.467Z,13.00
2022-10-24T04:11:38.462Z,12.90
2022-10-24T04:14:05.664Z,12.90
2022-10-24T04:16:34.964Z,12.80
2022-10-24T04:19:02.152Z,12.80
2022-10-24T04:21:29.183Z,12.80
2022-10-24T04:23:56.625Z,12.70
2022-10-24T04:26:24.395Z,12.70
2022-10-24T04:28:51.326Z,12.70
2022-10-24T04:31:22.437Z,12.70
2022-10-24T04:33:50.765Z,12.70
2022-10-24T04:36:18.808Z,12.70
2022-10-24T04:38:45.722Z,12.70
2022-10-24T04:41:13.062Z,12.80
2022-10-24T04:43:40.227Z,12.70
2022-10-24T04:46:07.825Z,12.70
2022-10-24T04:48:35.082Z,12.70
2022-10-24T04:51:03.864Z,12.80
2022-10-24T04:53:31.059Z,12.80
2022-10-24T04:55:58.156Z,12.80
2022-10-24T04:58:25.277Z,12.80
2022-10-24T05:00:52.259Z,12.80
2022-10-24T05:03:20.449Z,12.80
2022-10-24T05:05:48.590Z,12.80
2022-10-24T05:08:16.374Z,12.90
2022-10-24T05:10:45.303Z,13.00
2022-10-24T05:13:12.692Z,13.10
2022-10-24T05:15:39.802Z,13.10
2022-10-24T05:18:06.993Z,13.20
2022-10-24T05:20:34.235Z,13.20
2022-10-24T05:23:01.213Z,13.30
2022-10-24T05:25:28.412Z,13.30
2022-10-24T05:27:55.579Z,13.30
2022-10-24T05:30:22.692Z,13.40
2022-10-24T05:35:30.597Z,13.50
2022-10-24T05:37:57.490Z,13.50
2022-10-24T05:40:24.443Z,13.70
2022-10-24T05:42:52.383Z,13.80
2022-10-24T05:45:19.753Z,13.80
2022-10-24T05:47:47.106Z,13.90
2022-10-24T05:50:14.781Z,13.90
2022-10-24T05:52:46.208Z,13.90
2022-10-24T05:55:17.898Z,14.00
2022-10-24T05:57:46.196Z,14.00
2022-10-24T06:00:15.953Z,14.10
2022-10-24T06:02:43.664Z,14.20
2022-10-24T06:05:11.453Z,14.20
2022-10-24T06:07:38.810Z,14.20
2022-10-24T06:10:07.042Z,14.30
2022-10-24T06:12:36.211Z,14.30
2022-10-24T06:15:05.637Z,14.40
2022-10-24T06:17:32.834Z,14.50
2022-10-24T06:19:59.782Z,14.60
2022-10-24T06:22:29.765Z,14.60
2022-10-24T06:24:56.996Z,14.60
2022-10-24T06:27:24.285Z,14.70
2022-10-24T06:29:51.532Z,14.80
2022-10-24T06:32:18.761Z,14.80
2022-10-24T06:34:45.810Z,14.80
2022-10-24T06:37:12.796Z,14.90
2022-10-24T06:39:39.836Z,14.90
2022-10-24T06:42:06.817Z,14.90
2022-10-24T06:44:34.127Z,14.90
2022-10-24T06:47:01.058Z,14.90
2022-10-24T06:49:28.017Z,14.90
2022-10-24T06:51:55.070Z,15.00
2022-10-24T06:54:23.295Z,15.00
2022-10-24T06:56:52.279Z,14.90
2022-10-24T06:59:19.358Z,14.90
2022-10-24T07:01:46.781Z,15.00
2022-10-24T07:04:13.829Z,15.00
2022-10-24T07:06:40.912Z,14.90
2022-10-24T07:09:11.484Z,15.00
2022-10-24T07:11:41.509Z,15.00
2022-10-24T07:14:09.596Z,15.10
2022-10-24T07:16:36.961Z,15.00
2022-10-24T07:19:04.616Z,15.00
2022-10-24T07:21:33.125Z,14.90
2022-10-24T07:24:01.401Z,14.90
2022-10-24T07:26:29.652Z,14.80
2022-10-24T07:31:29.954Z,14.80
2022-10-24T07:33:57.208Z,14.80
2022-10-24T07:36:26.348Z,14.80
2022-10-24T07:38:56.634Z,14.80
2022-10-24T07:41:25.106Z,14.80
2022-10-24T07:43:53.035Z,14.80
2022-10-24T07:46:22.476Z,14.70
2022-10-24T07:48:53.393Z,14.70
2022-10-24T07:51:21.743Z,14.70
2022-10-24T07:53:49.553Z,14.70
2022-10-24T07:56:17.956Z,14.70
2022-10-24T07:58:47.013Z,14.70
2022-10-24T08:01:20.233Z,14.60
2022-10-24T08:03:47.744Z,14.60
2022-10-24T08:06:19.576Z,14.60
2022-10-24T08:08:46.986Z,14.60
2022-10-24T08:11:23.359Z,14.60
2022-10-24T08:13:51.631Z,14.60
2022-10-24T08:16:21.448Z,14.60
2022-10-24T08:18:49.967Z,14.60
2022-10-24T08:21:18.575Z,14.60
2022-10-24T08:23:48.637Z,14.50
2022-10-24T08:26:18.557Z,14.50
2022-10-24T08:28:48.800Z,14.50
2022-10-24T08:31:18.821Z,14.60
2022-10-24T08:33:46.647Z,14.60
2022-10-24T08:36:27.536Z,14.60
2022-10-24T08:38:55.256Z,14.70
2022-10-24T08:41:25.501Z,14.70
2022-10-24T08:43:54.487Z,14.70
2022-10-24T08:46:40.555Z,14.70
2022-10-24T08:49:23.084Z,14.60
2022-10-24T08:52:01.937Z,14.50
2022-10-24T08:54:39.331Z,14.50
2022-10-24T08:57:10.058Z,14.40
2022-10-24T08:59:38.571Z,14.40
2022-10-24T09:02:13.315Z,14.40
2022-10-24T09:04:51.377Z,14.40
2022-10-24T09:07:20.689Z,14.50
2022-10-24T09:09:51.174Z,14.50
2022-10-24T09:12:20.780Z,14.60
2022-10-24T09:14:55.832Z,14.70
2022-10-24T09:17:35.329Z,14.80
2022-10-24T09:20:20.537Z,14.80
2022-10-24T09:22:48.637Z,14.80
2022-10-24T09:25:18.642Z,14.80
2022-10-24T09:27:46.058Z,14.80
2022-10-24T09:30:30.109Z,14.80
2022-10-24T09:33:12.928Z,14.70
2022-10-24T09:35:40.575Z,14.70
2022-10-24T09:38:28.067Z,14.70
2022-10-24T09:41:17.291Z,14.70
2022-10-24T09:43:44.191Z,14.70
2022-10-24T09:46:15.394Z,14.60
2022-10-24T09:49:06.844Z,14.60
2022-10-24T09:51:41.417Z,14.70
2022-10-24T09:54:27.046Z,14.70
2022-10-24T09:56:57.628Z,14.80
2022-10-24T09:59:48.689Z,14.80
2022-10-24T10:02:24.667Z,15.00
2022-10-24T10:05:03.860Z,15.10
2022-10-24T10:07:39.577Z,15.20
2022-10-24T10:10:36.263Z,15.30
2022-10-24T10:13:12.745Z,15.30
2022-10-24T10:15:47.448Z,15.40
2022-10-24T10:18:31.182Z,15.40
2022-10-24T10:21:01.635Z,15.50
2022-10-24T10:23:50.436Z,15.50
2022-10-24T10:26:19.539Z,15.60
2022-10-24T10:28:55.742Z,15.60
2022-10-24T10:31:39.480Z,15.60
2022-10-24T10:34:24.115Z,15.60
2022-10-24T10:37:05.668Z,15.70
2022-10-24T10:39:55.630Z,15.70
2022-10-24T10:42:30.505Z,15.60
2022-10-24T10:45:26.508Z,15.70
2022-10-24T10:48:33.049Z,15.60
2022-10-24T10:51:33.370Z,15.60
2022-10-24T10:54:28.277Z,15.50
2022-10-24T10:57:07.435Z,15.50
2022-10-24T10:59:46.467Z,15.60
2022-10-24T11:02:32.139Z,15.70
2022-10-24T11:05:20.577Z,15.80
2022-10-24T11:07:57.745Z,15.90
2022-10-24T11:10:31.860Z,16.00
2022-10-24T11:13:01.568Z,16.00
2022-10-24T11:15:32.848Z,16.10
2022-10-24T11:18:06.951Z,16.10
2022-10-24T11:20:54.109Z,16.10
2022-10-24T11:23:36.533Z,16.10
2022-10-24T11:26:13.526Z,16.10
2022-10-24T11:28:53.976Z,16.10
2022-10-24T11:31:28.893Z,16.00
2022-10-24T11:34:03.806Z,16.10
2022-10-24T11:36:39.538Z,16.10
2022-10-24T11:39:26.117Z,16.20
2022-10-24T11:42:12.719Z,16.20
2022-10-24T11:44:52.066Z,16.30
2022-10-24T11:47:25.335Z,16.40
2022-10-24T11:50:23.309Z,16.40
2022-10-24T11:52:58.486Z,16.50
2022-10-24T11:55:37.647Z,16.50
2022-10-24T11:58:10.781Z,16.50
2022-10-24T12:01:01.891Z,16.60
2022-10-24T12:03:51.288Z,16.60
2022-10-24T12:06:32.972Z,16.70
2022-10-24T12:09:33.634Z,16.80
2022-10-24T12:12:29.815Z,16.80
2022-10-24T12:15:11.985Z,16.80
2022-10-24T12:17:38.905Z,16.90
2022-10-24T12:20:15.207Z,17.00
2022-10-24T12:22:44.702Z,17.00
2022-10-24T12:25:33.189Z,17.10
2022-10-24T12:28:03.242Z,17.10
2022-10-24T12:30:33.460Z,17.30
2022-10-24T12:33:03.440Z,17.30
2022-10-24T12:35:37.621Z,17.40
2022-10-24T12:38:15.573Z,17.40
2022-10-24T12:40:46.001Z,17.40
2022-10-24T12:43:17.528Z,17.30
2022-10-24T12:45:44.476Z,17.30
2022-10-24T12:48:37.282Z,17.20
2022-10-24T12:51:24.775Z,17.20
2022-10-24T12:54:01.064Z,17.20
2022-10-24T12:56:29.106Z,17.10
2022-10-24T12:59:02.961Z,17.10
2022-10-24T13:01:35.353Z,17.10
2022-10-24T13:04:14.456Z,17.00
2022-10-24T13:06:50.450Z,17.00
2022-10-24T13:09:32.512Z,17.00
2022-10-24T13:12:14.314Z,16.90
2022-10-24T13:14:59.603Z,16.80
2022-10-24T13:17:59.980Z,16.80
2022-10-24T13:20:35.628Z,16.80
2022-10-24T13:23:11.983Z,16.80
2022-10-24T13:25:40.563Z,16.70
2022-10-24T13:28:19.948Z,16.80
2022-10-24T13:30:49.709Z,16.70
2022-10-24T13:33:36.480Z,16.80
2022-10-24T13:36:03.425Z,16.80
2022-10-24T13:38:31.703Z,16.90
2022-10-24T13:40:58.884Z,17.00
2022-10-24T13:43:26.326Z,17.20
2022-10-24T13:45:53.238Z,17.20
2022-10-24T13:48:23.255Z,17.20
2022-10-24T13:51:28.907Z,17.30
2022-10-24T13:54:02.539Z,17.30
2022-10-24T13:56:35.457Z,17.20
2022-10-24T13:59:02.419Z,17.20
2022-10-24T14:01:31.448Z,17.20
2022-10-24T14:04:00.568Z,17.20
2022-10-24T14:06:31.135Z,17.10
2022-10-24T14:09:07.144Z,17.20
2022-10-24T14:11:39.415Z,17.20
2022-10-24T14:14:19.515Z,17.10
2022-10-24T14:16:46.506Z,17.10
2022-10-24T14:19:18.788Z,17.10
2022-10-24T14:21:49.073Z,17.10
2022-10-24T14:24:18.941Z,17.00
2022-10-24T14:26:56.554Z,17.00
2022-10-24T14:29:31.445Z,17.10
2022-10-24T14:32:04.398Z,17.10
2022-10-24T14:34:36.283Z,17.00
2022-10-24T14:37:06.873Z,16.90
2022-10-24T14:39:34.251Z,16.70
2022-10-24T14:42:02.729Z,16.60
2022-10-24T14:44:29.893Z,16.50
2022-10-24T14:47:25.652Z,16.40
2022-10-24T14:49:54.124Z,16.30
2022-10-24T14:52:28.863Z,16.20
2022-10-24T14:55:21.933Z,16.10
2022-10-24T14:57:51.410Z,16.10
2022-10-24T15:00:24.517Z,15.90
2022-10-24T15:02:58.012Z,15.80
2022-10-24T15:05:31.259Z,15.70
2022-10-24T15:08:20.535Z,15.70
2022-10-24T15:10:45.147Z,15.60
2022-10-24T15:13:17.881Z,15.60
2022-10-24T15:15:49.629Z,15.50
2022-10-24T15:18:45.963Z,15.50
2022-10-24T15:21:19.923Z,15.40
2022-10-24T15:23:50.546Z,15.40
2022-10-24T15:26:24.197Z,15.40
2022-10-24T15:29:03.509Z,15.40
2022-10-24T15:31:32.720Z,15.50
2022-10-24T15:33:59.703Z,15.50
2022-10-24T15:36:31.463Z,15.60
2022-10-24T15:39:02.296Z,15.70
2022-10-24T15:41:29.399Z,15.70
2022-10-24T15:43:57.747Z,15.80
2022-10-24T15:46:26.345Z,15.80
2022-10-24T15:48:54.606Z,15.80
2022-10-24T15:51:23.424Z,15.70
2022-10-24T15:53:50.883Z,15.60
2022-10-24T15:56:18.222Z,15.50
2022-10-24T16:01:30.221Z,15.30
2022-10-24T16:03:58.867Z,15.10
2022-10-24T16:06:27.054Z,15.00
2022-10-24T16:08:54.581Z,14.80
2022-10-24T16:11:22.292Z,14.70
2022-10-24T16:13:49.282Z,14.50
2022-10-24T16:16:16.337Z,14.40
2022-10-24T16:18:43.308Z,14.30
2022-10-24T16:21:17.423Z,14.30
2022-10-24T16:23:44.649Z,14.20
2022-10-24T16:26:12.072Z,14.10
2022-10-24T16:28:39.164Z,14.00
2022-10-24T16:31:06.766Z,14.00
2022-10-24T16:33:33.877Z,14.00
2022-10-24T16:36:00.818Z,14.00
2022-10-24T16:38:27.923Z,13.90
2022-10-24T16:40:54.969Z,13.90
2022-10-24T16:43:21.897Z,13.90
2022-10-24T16:46:00.223Z,13.90
2022-10-24T16:48:28.548Z,13.80
2022-10-24T16:50:55.780Z,13.80
2022-10-24T16:53:25.659Z,13.70
2022-10-24T16:55:55.134Z,13.70
2022-10-24T16:58:22.601Z,13.60
2022-10-24T17:00:49.887Z,13.60
2022-10-24T17:03:16.985Z,13.50
2022-10-24T17:08:13.585Z,13.60
2022-10-24T17:10:40.551Z,13.50
2022-10-24T17:13:07.732Z,13.50
2022-10-24T17:15:34.886Z,13.50
2022-10-24T17:18:01.935Z,13.30
2022-10-24T17:20:28.876Z,13.40
2022-10-24T17:22:56.116Z,13.40
2022-10-24T17:25:26.133Z,13.40
2022-10-24T17:27:54.358Z,13.40
2022-10-24T17:30:24.879Z,13.40
2022-10-24T17:32:52.480Z,13.40
2022-10-24T17:35:22.530Z,13.40
2022-10-24T17:38:15.755Z,13.40
2022-10-24T17:40:48.036Z,13.30
2022-10-24T17:43:28.175Z,13.30
2022-10-24T17:45:57.025Z,13.30
2022-10-24T17:48:24.956Z,13.30
2022-10-24T17:50:54.860Z,13.30
2022-10-24T17:53:21.978Z,13.30
2022-10-24T17:55:48.943Z,13.30
2022-10-24T17:58:17.113Z,13.20
2022-10-24T18:00:45.086Z,13.30
2022-10-24T18:03:12.794Z,13.30
2022-10-24T18:05:39.811Z,13.30
2022-10-24T18:08:09.632Z,13.20
2022-10-24T18:10:38.637Z,13.20
2022-10-24T18:13:06.800Z,13.10
2022-10-24T18:15:34.803Z,13.00
2022-10-24T18:18:01.792Z,13.00
2022-10-24T18:20:28.970Z,13.10
2022-10-24T18:22:56.009Z,13.20
2022-10-24T18:25:24.017Z,13.20
2022-10-24T18:27:51.597Z,13.30
2022-10-24T18:30:22.181Z,13.40
2022-10-24T18:32:49.533Z,13.40
2022-10-24T18:35:17.043Z,13.40
2022-10-24T18:37:44.216Z,13.40
2022-10-24T18:40:11.969Z,13.40
2022-10-24T18:42:45.472Z,13.40
2022-10-24T18:45:18.273Z,13.50
2022-10-24T18:47:45.603Z,13.50
2022-10-24T18:50:18.300Z,13.50
2022-10-24T18:52:47.891Z,13.50
2022-10-24T18:55:22.606Z,13.50
2022-10-24T18:57:50.375Z,13.60
2022-10-24T19:00:20.614Z,13.60
2022-10-24T19:03:06.625Z,13.50
2022-10-24T19:05:44.627Z,13.50
2022-10-24T19:08:22.381Z,13.60
2022-10-24T19:10:55.900Z,13.70
2022-10-24T19:13:25.110Z,13.70
2022-10-24T19:16:04.129Z,13.60
2022-10-24T19:18:35.922Z,13.60
2022-10-24T19:21:05.794Z,13.60
2022-10-24T19:23:33.338Z,13.60
2022-10-24T19:26:00.793Z,13.60
2022-10-24T19:28:28.407Z,13.60
2022-10-24T19:30:55.959Z,13.60
2022-10-24T19:33:27.851Z,13.60
2022-10-24T19:35:54.940Z,13.50
2022-10-24T19:38:22.082Z,13.60
2022-10-24T19:40:54.383Z,13.50
2022-10-24T19:43:23.612Z,13.50
2022-10-24T19:46:07.754Z,13.40
2022-10-24T19:48:41.487Z,13.30
2022-10-24T19:51:11.258Z,13.30
2022-10-24T19:53:41.616Z,13.20
2022-10-24T19:56:27.581Z,13.10
2022-10-24T19:58:55.780Z,13.10
2022-10-24T20:01:28.823Z,12.90
2022-10-24T20:03:56.922Z,12.90
2022-10-24T20:06:26.866Z,12.90
2022-10-24T20:08:54.260Z,12.80
2022-10-24T20:11:21.725Z,12.80
2022-10-24T20:13:50.486Z,12.70
2022-10-24T20:16:18.436Z,12.70
2022-10-24T20:18:45.401Z,12.60
2022-10-24T20:21:15.163Z,12.60
2022-10-24T20:23:42.153Z,12.60
2022-10-24T20:26:12.630Z,12.60
2022-10-24T20:28:43.358Z,12.60
2022-10-24T20:31:22.411Z,12.60
2022-10-24T20:33:49.619Z,12.50
2022-10-24T20:36:16.766Z,12.50
2022-10-24T20:38:43.832Z,12.50
2022-10-24T20:41:10.839Z,12.50
2022-10-24T20:43:37.809Z,12.50
2022-10-24T20:46:05.888Z,12.50
2022-10-24T20:48:34.184Z,12.40
2022-10-24T20:51:15.471Z,12.40
2022-10-24T20:53:42.932Z,12.40
2022-10-24T20:56:12.629Z,12.40
2022-10-24T20:58:41.476Z,12.40
2022-10-24T21:01:11.184Z,12.40
2022-10-24T21:03:38.864Z,12.30
2022-10-24T21:06:13.886Z,12.30
2022-10-24T21:08:40.901Z,12.30
2022-10-24T21:11:07.946Z,12.30
2022-10-24T21:13:34.851Z,12.30
2022-10-24T21:16:02.312Z,12.30
2022-10-24T21:18:29.229Z,12.20
2022-10-24T21:20:56.136Z,12.20
2022-10-24T21:23:23.216Z,12.10
2022-10-24T21:25:50.136Z,12.20
2022-10-24T21:28:17.114Z,12.10
2022-10-24T21:30:44.148Z,12.10
2022-10-24T21:33:11.101Z,12.20
2022-10-24T21:35:39.276Z,12.10
2022-10-24T21:38:06.283Z,12.20
2022-10-24T21:40:33.252Z,12.20
2022-10-24T21:43:01.587Z,12.20
2022-10-24T21:45:28.581Z,12.10
2022-10-24T21:47:55.485Z,12.10
2022-10-24T21:50:22.490Z,12.20
2022-10-24T21:52:50.602Z,12.20
2022-10-24T21:55:17.586Z,12.20
2022-10-24T21:57:44.621Z,12.20
2022-10-24T22:00:12.309Z,12.20
2022-10-24T22:02:39.431Z,12.20
2022-10-24T22:05:06.833Z,12.20
2022-10-24T22:07:33.731Z,12.20
2022-10-24T22:10:00.645Z,12.10
2022-10-24T22:12:27.753Z,12.10
2022-10-24T22:14:54.671Z,12.10
2022-10-24T22:17:21.646Z,12.10
2022-10-24T22:19:48.525Z,12.10
2022-10-24T22:22:16.138Z,12.10
2022-10-24T22:24:43.019Z,12.10
2022-10-24T22:27:10.128Z,12.10
2022-10-24T22:29:37.037Z,12.00
2022-10-24T22:32:04.393Z,12.00
2022-10-24T22:34:31.667Z,12.00
2022-10-24T22:37:06.267Z,11.90
2022-10-24T22:39:33.514Z,11.90
2022-10-24T22:42:00.674Z,11.80
2022-10-24T22:44:27.845Z,11.80
2022-10-24T22:47:16.950Z,11.60
2022-10-24T22:50:03.428Z,11.50
2022-10-24T22:52:30.583Z,11.60
2022-10-24T22:54:57.818Z,11.50
2022-10-24T22:57:25.041Z,11.50
2022-10-24T22:59:52.373Z,11.40
2022-10-24T23:02:41.000Z,11.40
2022-10-24T23:05:27.126Z,11.40
2022-10-24T23:07:57.363Z,11.40
2022-10-24T23:10:25.606Z,11.30
2022-10-24T23:12:53.163Z,11.30
2022-10-24T23:15:21.759Z,11.30
2022-10-24T23:17:49.663Z,11.30
2022-10-24T23:20:33.523Z,11.30
2022-10-24T23:23:16.560Z,11.30
2022-10-24T23:26:08.635Z,11.30
2022-10-24T23:28:58.904Z,11.30
2022-10-24T23:31:26.194Z,11.20
2022-10-24T23:33:53.380Z,11.30
2022-10-24T23:36:25.256Z,11.20
2022-10-24T23:38:55.292Z,11.20
2022-10-24T23:41:22.480Z,11.20
2022-10-24T23:43:49.698Z,11.20
2022-10-24T23:46:37.200Z,11.20
2022-10-24T23:49:13.371Z,11.20
2022-10-24T23:52:03.014Z,11.10
2022-10-24T23:54:32.773Z,11.20
2022-10-24T23:57:00.348Z,11.20
2022-10-24T23:59:27.721Z,11.20
